sensor_id;sensor_type;location;lat;lon;timestamp;temperature;humidity
9437;DHT22;4757;59.334;18.034;2022-10-17T00:13:16;9.80;99.90
9437;DHT22;4757;59.334;18.034;2022-10-17T00:16:30;9.80;99.90
9437;DHT22;4757;59.334;18.034;2022-10-17T00:18:58;9.80;99.90
9437;DHT22;4757;59.334;18.034;2022-10-17T00:21:28;9.80;99.90
9437;DHT22;4757;59.334;18.034;2022-10-17T00:24:01;9.80;99.90
9437;DHT22;4757;59.334;18.034;2022-10-17T00:26:33;9.90;99.90
9437;DHT22;4757;59.334;18.034;2022-10-17T00:29:04;9.90;99.90
9437;DHT22;4757;59.334;18.034;2022-10-17T00:31:37;10.00;99.90
9437;DHT22;4757;59.334;18.034;2022-10-17T00:34:06;10.00;99.90
9437;DHT22;4757;59.334;18.034;2022-10-17T00:36:45;10.00;99.90
9437;DHT22;4757;59.334;18.034;2022-10-17T00:39:12;10.00;99.90
9437;DHT22;4757;59.334;18.034;2022-10-17T00:41:39;10.00;99.90
9437;DHT22;4757;59.334;18.034;2022-10-17T00:47:25;10.10;99.90
9437;DHT22;4757;59.334;18.034;2022-10-17T00:49:58;10.20;99.90
9437;DHT22;4757;59.334;18.034;2022-10-17T00:52:32;10.20;99.90
9437;DHT22;4757;59.334;18.034;2022-10-17T00:55:23;10.20;99.90
9437;DHT22;4757;59.334;18.034;2022-10-17T00:57:52;10.20;99.90
9437;DHT22;4757;59.334;18.034;2022-10-17T01:00:20;10.30;99.90
9437;DHT22;4757;59.334;18.034;2022-10-17T01:02:47;10.30;99.90
9437;DHT22;4757;59.334;18.034;2022-10-17T01:05:16;10.30;99.90
9437;DHT22;4757;59.334;18.034;2022-10-17T01:08:05;10.30;99.90
9437;DHT22;4757;59.334;18.034;2022-10-17T01:10:50;10.40;99.90
9437;DHT22;4757;59.334;18.034;2022-10-17T01:13:29;10.40;99.90
9437;DHT22;4757;59.334;18.034;2022-10-17T01:27:51;10.40;99.90
9437;DHT22;4757;59.334;18.034;2022-10-17T01:35:53;10.50;99.90
9437;DHT22;4757;59.334;18.034;2022-10-17T01:38:45;10.50;99.90
9437;DHT22;4757;59.334;18.034;2022-10-17T01:44:12;10.60;99.90
9437;DHT22;4757;59.334;18.034;2022-10-17T01:46:47;10.60;99.90
9437;DHT22;4757;59.334;18.034;2022-10-17T01:49:19;10.60;99.90
9437;DHT22;4757;59.334;18.034;2022-10-17T01:52:06;10.60;99.90
9437;DHT22;4757;59.334;18.034;2022-10-17T01:54:45;10.70;99.90
9437;DHT22;4757;59.334;18.034;2022-10-17T01:57:45;10.70;99.90
9437;DHT22;4757;59.334;18.034;2022-10-17T02:00:20;10.80;99.90
9437;DHT22;4757;59.334;18.034;2022-10-17T02:02:50;10.70;99.90
9437;DHT22;4757;59.334;18.034;2022-10-17T02:05:25;10.70;99.90
9437;DHT22;4757;59.334;18.034;2022-10-17T02:07:53;10.70;99.90
9437;DHT22;4757;59.334;18.034;2022-10-17T02:17:11;10.80;99.90
9437;DHT22;4757;59.334;18.034;2022-10-17T02:33:17;10.80;99.90
9437;DHT22;4757;59.334;18.034;2022-10-17T02:35:51;10.80;99.90
9437;DHT22;4757;59.334;18.034;2022-10-17T02:38:20;10.80;99.90
9437;DHT22;4757;59.334;18.034;2022-10-17T02:40:51;10.80;99.90
9437;DHT22;4757;59.334;18.034;2022-10-17T02:43:19;10.80;99.90
9437;DHT22;4757;59.334;18.034;2022-10-17T02:45:48;10.80;99.90
9437;DHT22;4757;59.334;18.034;2022-10-17T02:48:27;10.70;99.90
9437;DHT22;4757;59.334;18.034;2022-10-17T02:51:26;10.70;99.90
9437;DHT22;4757;59.334;18.034;2022-10-17T02:57:37;10.60;99.90
9437;DHT22;4757;59.334;18.034;2022-10-17T02:59:38;10.60;99.90
9437;DHT22;4757;59.334;18.034;2022-10-17T03:02:09;10.50;99.90
9437;DHT22;4757;59.334;18.034;2022-10-17T03:04:45;10.50;99.90
9437;DHT22;4757;59.334;18.034;2022-10-17T03:07:20;10.40;99.90
9437;DHT22;4757;59.334;18.034;2022-10-17T03:09:49;10.40;99.90
9437;DHT22;4757;59.334;18.034;2022-10-17T03:12:17;10.40;99.90
9437;DHT22;4757;59.334;18.034;2022-10-17T03:14:46;10.40;99.90
9437;DHT22;4757;59.334;18.034;2022-10-17T03:17:18;10.30;99.90
9437;DHT22;4757;59.334;18.034;2022-10-17T03:19:45;10.30;99.90
9437;DHT22;4757;59.334;18.034;2022-10-17T03:22:12;10.30;99.90
9437;DHT22;4757;59.334;18.034;2022-10-17T03:24:39;10.30;99.90
9437;DHT22;4757;59.334;18.034;2022-10-17T03:27:06;10.20;99.90
9437;DHT22;4757;59.334;18.034;2022-10-17T03:29:39;10.20;99.90
9437;DHT22;4757;59.334;18.034;2022-10-17T03:32:10;10.20;99.90
9437;DHT22;4757;59.334;18.034;2022-10-17T03:34:39;10.20;99.90
9437;DHT22;4757;59.334;18.034;2022-10-17T03:37:07;10.20;99.90
9437;DHT22;4757;59.334;18.034;2022-10-17T03:39:36;10.20;99.90
9437;DHT22;4757;59.334;18.034;2022-10-17T03:42:04;10.10;99.90
9437;DHT22;4757;59.334;18.034;2022-10-17T03:44:33;10.10;99.90
9437;DHT22;4757;59.334;18.034;2022-10-17T03:47:09;10.10;99.90
9437;DHT22;4757;59.334;18.034;2022-10-17T03:49:39;10.10;99.90
9437;DHT22;4757;59.334;18.034;2022-10-17T03:52:11;10.10;99.90
9437;DHT22;4757;59.334;18.034;2022-10-17T03:54:38;10.10;99.90
9437;DHT22;4757;59.334;18.034;2022-10-17T03:57:05;10.10;99.90
9437;DHT22;4757;59.334;18.034;2022-10-17T03:59:32;10.10;99.90
9437;DHT22;4757;59.334;18.034;2022-10-17T04:01:59;10.10;99.90
9437;DHT22;4757;59.334;18.034;2022-10-17T04:04:26;10.10;99.90
9437;DHT22;4757;59.334;18.034;2022-10-17T04:06:56;10.00;99.90
9437;DHT22;4757;59.334;18.034;2022-10-17T04:09:23;10.10;99.90
9437;DHT22;4757;59.334;18.034;2022-10-17T04:11:49;10.00;99.90
9437;DHT22;4757;59.334;18.034;2022-10-17T04:14:17;10.10;99.90
9437;DHT22;4757;59.334;18.034;2022-10-17T04:16:46;10.10;99.90
9437;DHT22;4757;59.334;18.034;2022-10-17T04:19:15;10.00;99.90
9437;DHT22;4757;59.334;18.034;2022-10-17T04:21:45;10.00;99.90
9437;DHT22;4757;59.334;18.034;2022-10-17T04:24:39;10.00;99.90
9437;DHT22;4757;59.334;18.034;2022-10-17T04:27:10;10.10;99.90
9437;DHT22;4757;59.334;18.034;2022-10-17T04:29:42;10.00;99.90
9437;DHT22;4757;59.334;18.034;2022-10-17T04:32:12;10.00;99.90
9437;DHT22;4757;59.334;18.034;2022-10-17T04:34:42;10.00;99.90
9437;DHT22;4757;59.334;18.034;2022-10-17T04:37:18;10.00;99.90
9437;DHT22;4757;59.334;18.034;2022-10-17T04:39:51;10.00;99.90
9437;DHT22;4757;59.334;18.034;2022-10-17T04:42:22;10.00;99.90
9437;DHT22;4757;59.334;18.034;2022-10-17T04:44:54;10.00;99.90
9437;DHT22;4757;59.334;18.034;2022-10-17T04:47:26;10.00;99.90
9437;DHT22;4757;59.334;18.034;2022-10-17T04:49:54;10.00;99.90
9437;DHT22;4757;59.334;18.034;2022-10-17T04:52:21;10.00;99.90
9437;DHT22;4757;59.334;18.034;2022-10-17T04:55:05;10.00;99.90
9437;DHT22;4757;59.334;18.034;2022-10-17T04:57:41;10.00;99.90
9437;DHT22;4757;59.334;18.034;2022-10-17T05:00:14;10.00;99.90
9437;DHT22;4757;59.334;18.034;2022-10-17T05:02:42;10.00;99.90
9437;DHT22;4757;59.334;18.034;2022-10-17T05:05:14;10.00;99.90
9437;DHT22;4757;59.334;18.034;2022-10-17T05:07:46;10.00;99.90
9437;DHT22;4757;59.334;18.034;2022-10-17T05:10:18;9.90;99.90
9437;DHT22;4757;59.334;18.034;2022-10-17T05:12:47;10.00;99.90
9437;DHT22;4757;59.334;18.034;2022-10-17T05:15:19;9.90;99.90
9437;DHT22;4757;59.334;18.034;2022-10-17T05:17:54;10.00;99.90
9437;DHT22;4757;59.334;18.034;2022-10-17T05:20:45;9.90;99.90
9437;DHT22;4757;59.334;18.034;2022-10-17T05:23:15;9.90;99.90
9437;DHT22;4757;59.334;18.034;2022-10-17T05:25:52;9.90;99.90
9437;DHT22;4757;59.334;18.034;2022-10-17T05:28:22;9.90;99.90
9437;DHT22;4757;59.334;18.034;2022-10-17T05:30:52;9.90;99.90
9437;DHT22;4757;59.334;18.034;2022-10-17T05:33:22;9.90;99.90
9437;DHT22;4757;59.334;18.034;2022-10-17T05:35:52;10.00;99.90
9437;DHT22;4757;59.334;18.034;2022-10-17T05:38:25;9.90;99.90
9437;DHT22;4757;59.334;18.034;2022-10-17T05:40:59;9.90;99.90
9437;DHT22;4757;59.334;18.034;2022-10-17T05:43:32;9.90;99.90
9437;DHT22;4757;59.334;18.034;2022-10-17T05:46:04;9.90;99.90
9437;DHT22;4757;59.334;18.034;2022-10-17T05:48:33;9.90;99.90
9437;DHT22;4757;59.334;18.034;2022-10-17T05:51:05;9.90;99.90
9437;DHT22;4757;59.334;18.034;2022-10-17T05:53:42;9.90;99.90
9437;DHT22;4757;59.334;18.034;2022-10-17T05:56:10;9.90;99.90
9437;DHT22;4757;59.334;18.034;2022-10-17T05:58:42;9.90;99.90
9437;DHT22;4757;59.334;18.034;2022-10-17T06:01:17;10.00;99.90
9437;DHT22;4757;59.334;18.034;2022-10-17T06:03:44;9.90;99.90
9437;DHT22;4757;59.334;18.034;2022-10-17T06:06:17;10.00;99.90
9437;DHT22;4757;59.334;18.034;2022-10-17T06:08:49;10.00;99.90
9437;DHT22;4757;59.334;18.034;2022-10-17T06:11:25;9.90;99.90
9437;DHT22;4757;59.334;18.034;2022-10-17T06:13:54;10.00;99.90
9437;DHT22;4757;59.334;18.034;2022-10-17T06:16:26;10.00;99.90
9437;DHT22;4757;59.334;18.034;2022-10-17T06:18:57;10.00;99.90
9437;DHT22;4757;59.334;18.034;2022-10-17T06:21:30;10.00;99.90
9437;DHT22;4757;59.334;18.034;2022-10-17T06:24:02;10.00;99.90
9437;DHT22;4757;59.334;18.034;2022-10-17T06:26:33;10.00;99.90
9437;DHT22;4757;59.334;18.034;2022-10-17T06:29:03;10.00;99.90
9437;DHT22;4757;59.334;18.034;2022-10-17T06:31:42;10.00;99.90
9437;DHT22;4757;59.334;18.034;2022-10-17T06:34:26;10.00;99.90
9437;DHT22;4757;59.334;18.034;2022-10-17T06:36:59;10.00;99.90
9437;DHT22;4757;59.334;18.034;2022-10-17T06:39:34;10.00;99.90
9437;DHT22;4757;59.334;18.034;2022-10-17T06:42:03;10.10;99.90
9437;DHT22;4757;59.334;18.034;2022-10-17T06:44:36;10.00;99.90
9437;DHT22;4757;59.334;18.034;2022-10-17T06:47:08;10.10;99.90
9437;DHT22;4757;59.334;18.034;2022-10-17T06:49:38;10.10;99.90
9437;DHT22;4757;59.334;18.034;2022-10-17T06:52:05;10.10;99.90
9437;DHT22;4757;59.334;18.034;2022-10-17T06:54:33;10.10;99.90
9437;DHT22;4757;59.334;18.034;2022-10-17T06:57:00;10.10;99.90
9437;DHT22;4757;59.334;18.034;2022-10-17T06:59:30;10.20;99.90
9437;DHT22;4757;59.334;18.034;2022-10-17T07:02:00;10.20;99.90
9437;DHT22;4757;59.334;18.034;2022-10-17T07:04:30;10.20;99.90
9437;DHT22;4757;59.334;18.034;2022-10-17T07:07:02;10.20;99.90
9437;DHT22;4757;59.334;18.034;2022-10-17T07:09:38;10.20;99.90
9437;DHT22;4757;59.334;18.034;2022-10-17T07:12:10;10.30;99.90
9437;DHT22;4757;59.334;18.034;2022-10-17T07:14:38;10.30;99.90
9437;DHT22;4757;59.334;18.034;2022-10-17T07:17:14;10.30;99.90
9437;DHT22;4757;59.334;18.034;2022-10-17T07:19:55;10.40;99.90
9437;DHT22;4757;59.334;18.034;2022-10-17T07:22:24;10.30;99.90
9437;DHT22;4757;59.334;18.034;2022-10-17T07:24:51;10.40;99.90
9437;DHT22;4757;59.334;18.034;2022-10-17T07:27:22;10.40;99.90
9437;DHT22;4757;59.334;18.034;2022-10-17T07:29:52;10.40;99.90
9437;DHT22;4757;59.334;18.034;2022-10-17T07:32:19;10.40;99.90
9437;DHT22;4757;59.334;18.034;2022-10-17T07:34:46;10.40;99.90
9437;DHT22;4757;59.334;18.034;2022-10-17T07:37:16;10.50;99.90
9437;DHT22;4757;59.334;18.034;2022-10-17T07:39:45;10.40;99.90
9437;DHT22;4757;59.334;18.034;2022-10-17T07:42:21;10.50;99.90
9437;DHT22;4757;59.334;18.034;2022-10-17T07:44:48;10.60;99.90
9437;DHT22;4757;59.334;18.034;2022-10-17T07:47:16;10.60;99.90
9437;DHT22;4757;59.334;18.034;2022-10-17T07:49:46;10.60;99.90
9437;DHT22;4757;59.334;18.034;2022-10-17T07:52:16;10.70;99.90
9437;DHT22;4757;59.334;18.034;2022-10-17T07:54:46;10.70;99.90
9437;DHT22;4757;59.334;18.034;2022-10-17T07:57:16;10.80;99.90
9437;DHT22;4757;59.334;18.034;2022-10-17T07:59:43;10.80;99.90
9437;DHT22;4757;59.334;18.034;2022-10-17T08:02:21;10.80;99.90
9437;DHT22;4757;59.334;18.034;2022-10-17T08:04:50;10.80;99.90
9437;DHT22;4757;59.334;18.034;2022-10-17T08:08:02;10.90;99.90
9437;DHT22;4757;59.334;18.034;2022-10-17T08:10:32;10.90;99.90
9437;DHT22;4757;59.334;18.034;2022-10-17T08:13:12;10.90;99.90
9437;DHT22;4757;59.334;18.034;2022-10-17T08:15:44;10.90;99.90
9437;DHT22;4757;59.334;18.034;2022-10-17T08:18:16;10.90;99.90
9437;DHT22;4757;59.334;18.034;2022-10-17T08:20:49;10.90;99.90
9437;DHT22;4757;59.334;18.034;2022-10-17T08:23:20;10.90;99.90
9437;DHT22;4757;59.334;18.034;2022-10-17T08:25:52;10.90;99.90
9437;DHT22;4757;59.334;18.034;2022-10-17T08:28:25;10.90;99.90
9437;DHT22;4757;59.334;18.034;2022-10-17T08:31:05;10.90;99.90
9437;DHT22;4757;59.334;18.034;2022-10-17T08:33:37;10.90;99.90
9437;DHT22;4757;59.334;18.034;2022-10-17T08:36:05;10.90;99.90
9437;DHT22;4757;59.334;18.034;2022-10-17T08:38:38;11.00;99.90
9437;DHT22;4757;59.334;18.034;2022-10-17T08:47:04;11.10;99.90
9437;DHT22;4757;59.334;18.034;2022-10-17T08:50:01;11.10;99.90
9437;DHT22;4757;59.334;18.034;2022-10-17T08:52:40;11.20;99.90
9437;DHT22;4757;59.334;18.034;2022-10-17T08:55:21;11.20;99.90
9437;DHT22;4757;59.334;18.034;2022-10-17T08:57:53;11.20;99.90
9437;DHT22;4757;59.334;18.034;2022-10-17T09:00:21;11.30;99.90
9437;DHT22;4757;59.334;18.034;2022-10-17T09:05:55;11.30;99.90
9437;DHT22;4757;59.334;18.034;2022-10-17T09:11:08;11.40;99.90
9437;DHT22;4757;59.334;18.034;2022-10-17T09:19:33;11.60;99.90
9437;DHT22;4757;59.334;18.034;2022-10-17T09:22:23;11.60;99.90
9437;DHT22;4757;59.334;18.034;2022-10-17T09:25:00;11.60;99.90
9437;DHT22;4757;59.334;18.034;2022-10-17T09:27:40;11.70;99.90
9437;DHT22;4757;59.334;18.034;2022-10-17T09:33:19;11.90;99.90
9437;DHT22;4757;59.334;18.034;2022-10-17T09:36:03;11.90;99.90
9437;DHT22;4757;59.334;18.034;2022-10-17T09:39:08;12.00;99.90
9437;DHT22;4757;59.334;18.034;2022-10-17T09:44:34;12.10;99.90
9437;DHT22;4757;59.334;18.034;2022-10-17T09:49:48;12.20;99.90
9437;DHT22;4757;59.334;18.034;2022-10-17T09:52:46;12.20;99.90
9437;DHT22;4757;59.334;18.034;2022-10-17T09:58:07;12.20;99.90
9437;DHT22;4757;59.334;18.034;2022-10-17T10:00:43;12.20;99.90
9437;DHT22;4757;59.334;18.034;2022-10-17T10:03:38;12.30;99.90
9437;DHT22;4757;59.334;18.034;2022-10-17T10:06:16;12.40;99.90
9437;DHT22;4757;59.334;18.034;2022-10-17T10:08:57;12.40;99.90
9437;DHT22;4757;59.334;18.034;2022-10-17T10:11:53;12.40;99.90
9437;DHT22;4757;59.334;18.034;2022-10-17T10:14:41;12.50;99.90
9437;DHT22;4757;59.334;18.034;2022-10-17T10:17:33;12.50;99.90
9437;DHT22;4757;59.334;18.034;2022-10-17T10:20:03;12.60;99.90
9437;DHT22;4757;59.334;18.034;2022-10-17T10:22:30;12.60;99.90
9437;DHT22;4757;59.334;18.034;2022-10-17T10:27:43;12.70;99.90
9437;DHT22;4757;59.334;18.034;2022-10-17T10:30:26;12.80;99.90
9437;DHT22;4757;59.334;18.034;2022-10-17T10:32:56;12.80;99.90
9437;DHT22;4757;59.334;18.034;2022-10-17T10:35:34;12.80;99.90
9437;DHT22;4757;59.334;18.034;2022-10-17T11:05:39;12.90;99.90
9437;DHT22;4757;59.334;18.034;2022-10-17T15:39:35;11.80;99.90
9437;DHT22;4757;59.334;18.034;2022-10-17T15:42:08;11.80;99.90
9437;DHT22;4757;59.334;18.034;2022-10-17T15:44:37;11.80;99.90
9437;DHT22;4757;59.334;18.034;2022-10-17T15:47:04;11.80;99.90
9437;DHT22;4757;59.334;18.034;2022-10-17T15:49:32;11.70;99.90
9437;DHT22;4757;59.334;18.034;2022-10-17T15:52:00;11.80;99.90
9437;DHT22;4757;59.334;18.034;2022-10-17T15:54:27;11.70;99.90
9437;DHT22;4757;59.334;18.034;2022-10-17T15:56:54;11.80;99.90
9437;DHT22;4757;59.334;18.034;2022-10-17T15:59:26;11.80;99.90
9437;DHT22;4757;59.334;18.034;2022-10-17T16:01:54;11.70;99.90
9437;DHT22;4757;59.334;18.034;2022-10-17T16:04:21;11.60;99.90
9437;DHT22;4757;59.334;18.034;2022-10-17T16:06:50;11.60;99.90
9437;DHT22;4757;59.334;18.034;2022-10-17T16:09:17;11.60;99.90
9437;DHT22;4757;59.334;18.034;2022-10-17T16:11:44;11.60;99.90
9437;DHT22;4757;59.334;18.034;2022-10-17T16:14:13;11.60;99.90
9437;DHT22;4757;59.334;18.034;2022-10-17T16:16:41;11.60;99.90
9437;DHT22;4757;59.334;18.034;2022-10-17T16:19:08;11.50;99.90
9437;DHT22;4757;59.334;18.034;2022-10-17T16:21:38;11.50;99.90
9437;DHT22;4757;59.334;18.034;2022-10-17T16:24:05;11.50;99.90
9437;DHT22;4757;59.334;18.034;2022-10-17T16:26:40;11.40;99.90
9437;DHT22;4757;59.334;18.034;2022-10-17T16:29:07;11.40;99.90
9437;DHT22;4757;59.334;18.034;2022-10-17T16:31:40;11.50;99.90
9437;DHT22;4757;59.334;18.034;2022-10-17T16:34:15;11.40;99.90
9437;DHT22;4757;59.334;18.034;2022-10-17T16:36:43;11.40;99.90
9437;DHT22;4757;59.334;18.034;2022-10-17T16:39:10;11.40;99.90
9437;DHT22;4757;59.334;18.034;2022-10-17T16:41:38;11.30;99.90
9437;DHT22;4757;59.334;18.034;2022-10-17T16:44:07;11.30;99.90
9437;DHT22;4757;59.334;18.034;2022-10-17T16:46:36;11.40;99.90
9437;DHT22;4757;59.334;18.034;2022-10-17T16:49:08;11.40;99.90
9437;DHT22;4757;59.334;18.034;2022-10-17T16:52:03;11.40;99.90
9437;DHT22;4757;59.334;18.034;2022-10-17T16:58:16;11.30;99.90
9437;DHT22;4757;59.334;18.034;2022-10-17T17:01:34;11.30;99.90
9437;DHT22;4757;59.334;18.034;2022-10-17T17:04:16;11.30;99.90
9437;DHT22;4757;59.334;18.034;2022-10-17T17:06:52;11.20;99.90
9437;DHT22;4757;59.334;18.034;2022-10-17T17:09:32;11.20;99.90
9437;DHT22;4757;59.334;18.034;2022-10-17T17:12:39;11.20;99.90
9437;DHT22;4757;59.334;18.034;2022-10-17T17:15:42;11.20;99.90
9437;DHT22;4757;59.334;18.034;2022-10-17T17:18:29;11.20;99.90
9437;DHT22;4757;59.334;18.034;2022-10-17T17:21:31;11.20;99.90
9437;DHT22;4757;59.334;18.034;2022-10-17T17:24:23;11.20;99.90
9437;DHT22;4757;59.334;18.034;2022-10-17T17:27:02;11.20;99.90
9437;DHT22;4757;59.334;18.034;2022-10-17T17:29:47;11.10;99.90
9437;DHT22;4757;59.334;18.034;2022-10-17T17:32:28;11.10;99.90
9437;DHT22;4757;59.334;18.034;2022-10-17T17:35:00;11.20;99.90
9437;DHT22;4757;59.334;18.034;2022-10-17T17:37:34;11.10;99.90
9437;DHT22;4757;59.334;18.034;2022-10-17T17:40:20;11.10;99.90
9437;DHT22;4757;59.334;18.034;2022-10-17T17:42:50;11.20;99.90
9437;DHT22;4757;59.334;18.034;2022-10-17T17:45:23;11.10;99.90
9437;DHT22;4757;59.334;18.034;2022-10-17T17:47:56;11.20;99.90
9437;DHT22;4757;59.334;18.034;2022-10-17T17:50:25;11.10;99.90
9437;DHT22;4757;59.334;18.034;2022-10-17T17:52:55;11.10;99.90
9437;DHT22;4757;59.334;18.034;2022-10-17T17:55:26;11.10;99.90
9437;DHT22;4757;59.334;18.034;2022-10-17T17:57:53;11.10;99.90
9437;DHT22;4757;59.334;18.034;2022-10-17T18:00:20;11.10;99.90
9437;DHT22;4757;59.334;18.034;2022-10-17T18:02:49;11.00;99.90
9437;DHT22;4757;59.334;18.034;2022-10-17T18:05:21;11.00;99.90
9437;DHT22;4757;59.334;18.034;2022-10-17T18:07:48;11.00;99.90
9437;DHT22;4757;59.334;18.034;2022-10-17T18:10:19;10.90;99.90
9437;DHT22;4757;59.334;18.034;2022-10-17T18:13:08;11.00;99.90
9437;DHT22;4757;59.334;18.034;2022-10-17T18:15:35;10.90;99.90
9437;DHT22;4757;59.334;18.034;2022-10-17T18:18:04;10.90;99.90
9437;DHT22;4757;59.334;18.034;2022-10-17T18:20:41;10.90;99.90
9437;DHT22;4757;59.334;18.034;2022-10-17T18:23:09;10.90;99.90
9437;DHT22;4757;59.334;18.034;2022-10-17T18:25:39;10.90;99.90
9437;DHT22;4757;59.334;18.034;2022-10-17T18:28:06;10.90;99.90
9437;DHT22;4757;59.334;18.034;2022-10-17T18:30:37;10.80;99.90
9437;DHT22;4757;59.334;18.034;2022-10-17T18:33:06;10.70;99.90
9437;DHT22;4757;59.334;18.034;2022-10-17T18:35:36;10.60;99.90
9437;DHT22;4757;59.334;18.034;2022-10-17T18:38:03;10.60;99.90
9437;DHT22;4757;59.334;18.034;2022-10-17T18:40:30;10.60;99.90
9437;DHT22;4757;59.334;18.034;2022-10-17T18:42:57;10.60;99.90
9437;DHT22;4757;59.334;18.034;2022-10-17T18:45:26;10.50;99.90
9437;DHT22;4757;59.334;18.034;2022-10-17T18:48:00;10.50;99.90
9437;DHT22;4757;59.334;18.034;2022-10-17T18:50:30;10.50;99.90
9437;DHT22;4757;59.334;18.034;2022-10-17T18:52:57;10.50;99.90
9437;DHT22;4757;59.334;18.034;2022-10-17T18:55:24;10.40;99.90
9437;DHT22;4757;59.334;18.034;2022-10-17T18:57:51;10.40;99.90
9437;DHT22;4757;59.334;18.034;2022-10-17T19:00:20;10.40;99.90
9437;DHT22;4757;59.334;18.034;2022-10-17T19:02:53;10.40;99.90
9437;DHT22;4757;59.334;18.034;2022-10-17T19:06:02;10.40;99.90
9437;DHT22;4757;59.334;18.034;2022-10-17T19:08:39;10.40;99.90
9437;DHT22;4757;59.334;18.034;2022-10-17T19:11:23;10.30;99.90
9437;DHT22;4757;59.334;18.034;2022-10-17T19:14:30;10.30;99.90
9437;DHT22;4757;59.334;18.034;2022-10-17T19:17:19;10.30;99.90
9437;DHT22;4757;59.334;18.034;2022-10-17T19:19:46;10.30;99.90
9437;DHT22;4757;59.334;18.034;2022-10-17T19:22:31;10.30;99.90
9437;DHT22;4757;59.334;18.034;2022-10-17T19:25:10;10.30;99.90
9437;DHT22;4757;59.334;18.034;2022-10-17T19:27:44;10.20;99.90
9437;DHT22;4757;59.334;18.034;2022-10-17T19:30:21;10.10;99.90
9437;DHT22;4757;59.334;18.034;2022-10-17T19:33:31;10.10;99.90
9437;DHT22;4757;59.334;18.034;2022-10-17T19:36:07;10.10;99.90
9437;DHT22;4757;59.334;18.034;2022-10-17T19:42:05;10.00;99.90
9437;DHT22;4757;59.334;18.034;2022-10-17T19:45:17;10.00;99.90
9437;DHT22;4757;59.334;18.034;2022-10-17T19:47:53;9.90;99.90
9437;DHT22;4757;59.334;18.034;2022-10-17T19:50:31;10.00;99.90
9437;DHT22;4757;59.334;18.034;2022-10-17T19:53:19;9.90;99.90
9437;DHT22;4757;59.334;18.034;2022-10-17T19:56:19;9.80;99.90
9437;DHT22;4757;59.334;18.034;2022-10-17T19:59:17;9.90;99.90
9437;DHT22;4757;59.334;18.034;2022-10-17T20:01:45;9.90;99.90
9437;DHT22;4757;59.334;18.034;2022-10-17T20:04:13;9.80;99.90
9437;DHT22;4757;59.334;18.034;2022-10-17T20:06:40;9.80;99.90
9437;DHT22;4757;59.334;18.034;2022-10-17T20:09:07;9.70;99.90
9437;DHT22;4757;59.334;18.034;2022-10-17T20:11:41;9.70;99.90
9437;DHT22;4757;59.334;18.034;2022-10-17T20:14:12;9.60;99.90
9437;DHT22;4757;59.334;18.034;2022-10-17T20:16:42;9.60;99.90
9437;DHT22;4757;59.334;18.034;2022-10-17T20:19:17;9.60;99.90
9437;DHT22;4757;59.334;18.034;2022-10-17T20:21:50;9.60;99.90
9437;DHT22;4757;59.334;18.034;2022-10-17T20:24:17;9.50;99.90
9437;DHT22;4757;59.334;18.034;2022-10-17T20:26:55;9.40;99.90
9437;DHT22;4757;59.334;18.034;2022-10-17T20:29:31;9.40;99.90
9437;DHT22;4757;59.334;18.034;2022-10-17T20:32:03;9.30;99.90
9437;DHT22;4757;59.334;18.034;2022-10-17T20:34:30;9.20;99.90
9437;DHT22;4757;59.334;18.034;2022-10-17T20:37:01;9.30;99.90
9437;DHT22;4757;59.334;18.034;2022-10-17T20:39:29;9.20;99.90
9437;DHT22;4757;59.334;18.034;2022-10-17T20:41:59;9.30;99.90
9437;DHT22;4757;59.334;18.034;2022-10-17T20:44:26;9.20;99.90
9437;DHT22;4757;59.334;18.034;2022-10-17T20:46:53;9.20;99.90
9437;DHT22;4757;59.334;18.034;2022-10-17T20:49:28;9.20;99.90
9437;DHT22;4757;59.334;18.034;2022-10-17T20:52:01;9.20;99.90
9437;DHT22;4757;59.334;18.034;2022-10-17T20:54:29;9.20;99.90
9437;DHT22;4757;59.334;18.034;2022-10-17T20:56:57;9.10;99.90
9437;DHT22;4757;59.334;18.034;2022-10-17T20:59:33;9.10;99.90
9437;DHT22;4757;59.334;18.034;2022-10-17T21:02:03;9.20;99.90
9437;DHT22;4757;59.334;18.034;2022-10-17T21:04:31;9.20;99.90
9437;DHT22;4757;59.334;18.034;2022-10-17T21:07:16;9.20;99.90
9437;DHT22;4757;59.334;18.034;2022-10-17T21:09:45;9.20;99.90
9437;DHT22;4757;59.334;18.034;2022-10-17T21:12:14;9.20;99.90
9437;DHT22;4757;59.334;18.034;2022-10-17T21:15:04;9.20;99.90
9437;DHT22;4757;59.334;18.034;2022-10-17T21:17:31;9.20;99.90
9437;DHT22;4757;59.334;18.034;2022-10-17T21:20:01;9.20;99.90
9437;DHT22;4757;59.334;18.034;2022-10-17T21:22:32;9.20;99.90
9437;DHT22;4757;59.334;18.034;2022-10-17T21:25:00;9.10;99.90
9437;DHT22;4757;59.334;18.034;2022-10-17T21:27:27;9.20;99.90
9437;DHT22;4757;59.334;18.034;2022-10-17T21:30:10;9.10;99.90
9437;DHT22;4757;59.334;18.034;2022-10-17T21:32:47;9.10;99.90
9437;DHT22;4757;59.334;18.034;2022-10-17T21:35:23;9.10;99.90
9437;DHT22;4757;59.334;18.034;2022-10-17T21:37:53;9.10;99.90
9437;DHT22;4757;59.334;18.034;2022-10-17T21:40:20;9.10;99.90
9437;DHT22;4757;59.334;18.034;2022-10-17T21:42:47;9.10;99.90
9437;DHT22;4757;59.334;18.034;2022-10-17T21:45:25;9.20;99.90
9437;DHT22;4757;59.334;18.034;2022-10-17T21:47:54;9.10;99.90
9437;DHT22;4757;59.334;18.034;2022-10-17T21:50:41;9.20;99.90
9437;DHT22;4757;59.334;18.034;2022-10-17T21:53:08;9.10;99.90
9437;DHT22;4757;59.334;18.034;2022-10-17T21:55:36;9.00;99.90
9437;DHT22;4757;59.334;18.034;2022-10-17T21:58:26;9.00;99.90
9437;DHT22;4757;59.334;18.034;2022-10-17T22:01:17;9.00;99.90
9437;DHT22;4757;59.334;18.034;2022-10-17T22:03:51;8.90;99.90
9437;DHT22;4757;59.334;18.034;2022-10-17T22:06:25;8.90;99.90
9437;DHT22;4757;59.334;18.034;2022-10-17T22:09:16;8.90;99.90
9437;DHT22;4757;59.334;18.034;2022-10-17T22:11:50;8.90;99.90
9437;DHT22;4757;59.334;18.034;2022-10-17T22:14:25;9.00;99.90
9437;DHT22;4757;59.334;18.034;2022-10-17T22:16:57;8.90;99.90
9437;DHT22;4757;59.334;18.034;2022-10-17T22:19:26;9.00;99.90
9437;DHT22;4757;59.334;18.034;2022-10-17T22:21:56;9.00;99.90
9437;DHT22;4757;59.334;18.034;2022-10-17T22:24:29;9.10;99.90
9437;DHT22;4757;59.334;18.034;2022-10-17T22:26:56;9.00;99.90
9437;DHT22;4757;59.334;18.034;2022-10-17T22:29:24;9.00;99.90
9437;DHT22;4757;59.334;18.034;2022-10-17T22:31:51;9.00;99.90
9437;DHT22;4757;59.334;18.034;2022-10-17T22:34:21;9.00;99.90
9437;DHT22;4757;59.334;18.034;2022-10-17T22:36:48;9.00;99.90
9437;DHT22;4757;59.334;18.034;2022-10-17T22:39:21;8.90;99.90
9437;DHT22;4757;59.334;18.034;2022-10-17T22:41:48;8.90;99.90
9437;DHT22;4757;59.334;18.034;2022-10-17T22:44:16;8.80;99.90
9437;DHT22;4757;59.334;18.034;2022-10-17T22:46:45;8.80;99.90
9437;DHT22;4757;59.334;18.034;2022-10-17T22:49:15;8.80;99.90
9437;DHT22;4757;59.334;18.034;2022-10-17T22:51:42;8.80;99.90
9437;DHT22;4757;59.334;18.034;2022-10-17T22:54:09;8.60;99.90
9437;DHT22;4757;59.334;18.034;2022-10-17T22:56:36;8.60;99.90
9437;DHT22;4757;59.334;18.034;2022-10-17T22:59:06;8.60;99.90
9437;DHT22;4757;59.334;18.034;2022-10-17T23:01:35;8.60;99.90
9437;DHT22;4757;59.334;18.034;2022-10-17T23:04:05;8.60;99.90
9437;DHT22;4757;59.334;18.034;2022-10-17T23:06:32;8.60;99.90
9437;DHT22;4757;59.334;18.034;2022-10-17T23:08:59;8.60;99.90